BEL1TE EBBR-LGKO
Flight info
| Callsign | BEL1TE |
|---|---|
| Flight time | N/A |
| Altitude | 35000 |
| Route | SOPOK Y863 ROPUV L607 EMGOD DCT BOMBI DCT DETEV DCT DINKU DCT BESNI DCT LATLO DCT OBEDI DCT PODET DCT SOMUN DCT NISVA Y505 NIKTI UN127 LMO UL618 MES UN139 LURUS UL995 KOPAR |
| Aircraft | A20N/M-DE3FGHIJ1LORVWY/HB1G1 |
Departure
| Time | 2026-05-06 13:28 |
|---|---|
| Airport | Brussels Airport (EBBR) |
Arrival
| Time | N/A |
|---|---|
| Airport | Kos International Airport "Ippokratis" (LGKO) |
| Time | Latitude | Longitude | Altitude | Speed | Heading |
|---|---|---|---|---|---|
| 2026-05-06 12:55 | 50.90411 | 4.48592 | 193 ft | 0 kts | 155° |
| 2026-05-06 13:20 | 50.90417 | 4.48588 | 192 ft | 2 kts | 155° |
| 2026-05-06 13:21 | 50.90431 | 4.48579 | 192 ft | 2 kts | 155° |
| 2026-05-06 13:21 | 50.90445 | 4.48569 | 192 ft | 2 kts | 155° |
| 2026-05-06 13:21 | 50.90453 | 4.48563 | 192 ft | 1 kts | 155° |
| 2026-05-06 13:21 | 50.90466 | 4.48549 | 192 ft | 2 kts | 130° |
| 2026-05-06 13:22 | 50.90474 | 4.48529 | 192 ft | 2 kts | 110° |
| 2026-05-06 13:22 | 50.90477 | 4.48506 | 192 ft | 2 kts | 90° |
| 2026-05-06 13:22 | 50.90476 | 4.48489 | 192 ft | 2 kts | 74° |
| 2026-05-06 13:22 | 50.90474 | 4.48477 | 192 ft | 1 kts | 62° |
| 2026-05-06 13:23 | 50.90472 | 4.48471 | 192 ft | 0 kts | 64° |
| 2026-05-06 13:24 | 50.90474 | 4.48478 | 192 ft | 1 kts | 64° |
| 2026-05-06 13:24 | 50.90481 | 4.48504 | 192 ft | 5 kts | 64° |
| 2026-05-06 13:24 | 50.90505 | 4.48569 | 192 ft | 8 kts | 43° |
| 2026-05-06 13:24 | 50.90575 | 4.48606 | 192 ft | 11 kts | 26° |
| 2026-05-06 13:25 | 50.90619 | 4.48721 | 192 ft | 13 kts | 63° |
| 2026-05-06 13:25 | 50.90664 | 4.48865 | 192 ft | 15 kts | 64° |
| 2026-05-06 13:25 | 50.90715 | 4.49045 | 193 ft | 19 kts | 65° |
| 2026-05-06 13:25 | 50.90778 | 4.49260 | 192 ft | 23 kts | 64° |
| 2026-05-06 13:26 | 50.90848 | 4.49507 | 193 ft | 25 kts | 65° |
| 2026-05-06 13:26 | 50.90924 | 4.49762 | 192 ft | 22 kts | 65° |
| 2026-05-06 13:26 | 50.91029 | 4.49906 | 192 ft | 18 kts | 21° |
| 2026-05-06 13:26 | 50.91134 | 4.49905 | 192 ft | 14 kts | 288° |
| 2026-05-06 13:27 | 50.91096 | 4.49730 | 192 ft | 30 kts | 245° |
| 2026-05-06 13:27 | 50.90904 | 4.49063 | 192 ft | 100 kts | 245° |
| 2026-05-06 13:27 | 50.90530 | 4.47775 | 193 ft | 155 kts | 244° |
| 2026-05-06 13:27 | 50.90030 | 4.46076 | 440 ft | 178 kts | 247° |
| 2026-05-06 13:28 | 50.89463 | 4.44342 | 1006 ft | 182 kts | 236° |
| 2026-05-06 13:28 | 50.88411 | 4.43277 | 1652 ft | 185 kts | 184° |
| 2026-05-06 13:28 | 50.87230 | 4.43784 | 2212 ft | 180 kts | 133° |
| 2026-05-06 13:28 | 50.86522 | 4.45371 | 2641 ft | 183 kts | 113° |
| 2026-05-06 13:29 | 50.85857 | 4.47201 | 3009 ft | 200 kts | 116° |
| 2026-05-06 13:29 | 50.85072 | 4.49157 | 3388 ft | 218 kts | 118° |
| 2026-05-06 13:29 | 50.84198 | 4.51208 | 3729 ft | 238 kts | 120° |
| 2026-05-06 13:29 | 50.83210 | 4.53449 | 4129 ft | 258 kts | 121° |
| 2026-05-06 13:30 | 50.82126 | 4.55854 | 4680 ft | 272 kts | 122° |
| 2026-05-06 13:30 | 50.81025 | 4.58268 | 5455 ft | 276 kts | 122° |
| 2026-05-06 13:30 | 50.79927 | 4.60664 | 6256 ft | 279 kts | 122° |
| 2026-05-06 13:30 | 50.78825 | 4.63069 | 7042 ft | 282 kts | 123° |
| 2026-05-06 13:31 | 50.77671 | 4.65584 | 7848 ft | 285 kts | 124° |
| 2026-05-06 13:31 | 50.76517 | 4.68107 | 8639 ft | 289 kts | 124° |
| 2026-05-06 13:31 | 50.75332 | 4.70701 | 9421 ft | 292 kts | 124° |
| 2026-05-06 13:31 | 50.74147 | 4.73285 | 10191 ft | 295 kts | 125° |
| 2026-05-06 13:32 | 50.72906 | 4.75983 | 10680 ft | 309 kts | 125° |
| 2026-05-06 13:32 | 50.71598 | 4.78823 | 11056 ft | 327 kts | 125° |
| 2026-05-06 13:32 | 50.70236 | 4.81770 | 11417 ft | 343 kts | 125° |
| 2026-05-06 13:32 | 50.68834 | 4.84803 | 12033 ft | 349 kts | 125° |
| 2026-05-06 13:33 | 50.67455 | 4.87779 | 12728 ft | 352 kts | 126° |
| 2026-05-06 13:33 | 50.66093 | 4.90716 | 13398 ft | 355 kts | 126° |
| 2026-05-06 13:33 | 50.64682 | 4.93747 | 14033 ft | 359 kts | 126° |
| 2026-05-06 13:33 | 50.63277 | 4.96762 | 14611 ft | 363 kts | 126° |
| 2026-05-06 13:34 | 50.61783 | 4.99980 | 15279 ft | 366 kts | 126° |
| 2026-05-06 13:34 | 50.60352 | 5.03054 | 15900 ft | 369 kts | 126° |
| 2026-05-06 13:34 | 50.58867 | 5.06245 | 16513 ft | 372 kts | 127° |
| 2026-05-06 13:34 | 50.57354 | 5.09485 | 17104 ft | 375 kts | 127° |
| 2026-05-06 13:35 | 50.55840 | 5.12728 | 17675 ft | 378 kts | 127° |
| 2026-05-06 13:35 | 50.54327 | 5.15961 | 18262 ft | 380 kts | 127° |
| 2026-05-06 13:35 | 50.52763 | 5.19297 | 18844 ft | 383 kts | 127° |
| 2026-05-06 13:35 | 50.51167 | 5.22699 | 19399 ft | 386 kts | 127° |
| 2026-05-06 13:36 | 50.49556 | 5.26128 | 19946 ft | 390 kts | 127° |
| 2026-05-06 13:36 | 50.47932 | 5.29580 | 20494 ft | 393 kts | 127° |
| 2026-05-06 13:36 | 50.46307 | 5.33032 | 21037 ft | 396 kts | 127° |
| 2026-05-06 13:36 | 50.44666 | 5.36515 | 21556 ft | 399 kts | 127° |
| 2026-05-06 13:37 | 50.43029 | 5.39990 | 22064 ft | 402 kts | 127° |
| 2026-05-06 13:37 | 50.41342 | 5.43563 | 22591 ft | 404 kts | 127° |
| 2026-05-06 13:37 | 50.39972 | 5.46459 | 22988 ft | 407 kts | 127° |